sensor_id;sensor_type;location;lat;lon;timestamp;P1;durP1;ratioP1;P2;durP2;ratioP2
20431;SDS011;10375;49.136;10.366;2023-08-07T00:02:10;54.65;;;51.88;;
20431;SDS011;10375;49.136;10.366;2023-08-07T00:04:37;51.30;;;48.70;;
20431;SDS011;10375;49.136;10.366;2023-08-07T00:07:04;52.17;;;49.47;;
20431;SDS011;10375;49.136;10.366;2023-08-07T00:09:32;46.45;;;44.13;;
20431;SDS011;10375;49.136;10.366;2023-08-07T00:11:59;50.35;;;47.50;;
20431;SDS011;10375;49.136;10.366;2023-08-07T00:14:26;50.55;;;48.05;;
20431;SDS011;10375;49.136;10.366;2023-08-07T00:16:53;49.80;;;46.97;;
20431;SDS011;10375;49.136;10.366;2023-08-07T00:19:20;47.60;;;44.67;;
20431;SDS011;10375;49.136;10.366;2023-08-07T00:21:47;46.30;;;44.00;;
20431;SDS011;10375;49.136;10.366;2023-08-07T00:24:14;45.90;;;43.42;;
20431;SDS011;10375;49.136;10.366;2023-08-07T00:26:41;45.10;;;42.85;;
20431;SDS011;10375;49.136;10.366;2023-08-07T00:29:08;44.58;;;42.28;;
20431;SDS011;10375;49.136;10.366;2023-08-07T00:31:35;0.38;;;0.38;;
20431;SDS011;10375;49.136;10.366;2023-08-07T00:34:02;4.30;;;0.80;;
20431;SDS011;10375;49.136;10.366;2023-08-07T00:36:30;1.35;;;0.90;;
20431;SDS011;10375;49.136;10.366;2023-08-07T00:39:01;1.08;;;0.75;;
20431;SDS011;10375;49.136;10.366;2023-08-07T00:41:32;7.03;;;1.17;;
20431;SDS011;10375;49.136;10.366;2023-08-07T00:44:01;1.17;;;0.80;;
20431;SDS011;10375;49.136;10.366;2023-08-07T00:46:28;2.25;;;0.80;;
20431;SDS011;10375;49.136;10.366;2023-08-07T00:48:56;4.22;;;0.90;;
20431;SDS011;10375;49.136;10.366;2023-08-07T00:51:23;2.72;;;0.70;;
20431;SDS011;10375;49.136;10.366;2023-08-07T00:53:51;0.70;;;0.70;;
20431;SDS011;10375;49.136;10.366;2023-08-07T00:56:18;1.27;;;1.08;;
20431;SDS011;10375;49.136;10.366;2023-08-07T00:58:45;1.20;;;0.98;;
20431;SDS011;10375;49.136;10.366;2023-08-07T01:01:13;1.77;;;0.90;;
20431;SDS011;10375;49.136;10.366;2023-08-07T01:03:41;4.43;;;1.15;;
20431;SDS011;10375;49.136;10.366;2023-08-07T01:06:08;1.30;;;0.88;;
20431;SDS011;10375;49.136;10.366;2023-08-07T01:08:35;0.88;;;0.80;;
20431;SDS011;10375;49.136;10.366;2023-08-07T01:11:12;1.15;;;0.90;;
20431;SDS011;10375;49.136;10.366;2023-08-07T01:16:42;1.35;;;1.10;;
20431;SDS011;10375;49.136;10.366;2023-08-07T01:19:27;1.00;;;0.90;;
20431;SDS011;10375;49.136;10.366;2023-08-07T01:24:41;1.10;;;1.00;;
20431;SDS011;10375;49.136;10.366;2023-08-07T01:32:32;2.17;;;1.10;;
20431;SDS011;10375;49.136;10.366;2023-08-07T01:35:11;1.10;;;1.00;;
20431;SDS011;10375;49.136;10.366;2023-08-07T01:37:40;2.47;;;0.93;;
20431;SDS011;10375;49.136;10.366;2023-08-07T01:40:09;1.02;;;1.02;;
20431;SDS011;10375;49.136;10.366;2023-08-07T01:42:37;3.72;;;1.50;;
20431;SDS011;10375;49.136;10.366;2023-08-07T01:45:05;2.13;;;1.20;;
20431;SDS011;10375;49.136;10.366;2023-08-07T01:47:32;4.53;;;1.77;;
20431;SDS011;10375;49.136;10.366;2023-08-07T01:50:00;4.03;;;1.80;;
20431;SDS011;10375;49.136;10.366;2023-08-07T01:52:27;3.30;;;2.13;;
20431;SDS011;10375;49.136;10.366;2023-08-07T01:54:54;8.57;;;1.77;;
20431;SDS011;10375;49.136;10.366;2023-08-07T01:57:22;3.55;;;2.03;;
20431;SDS011;10375;49.136;10.366;2023-08-07T01:59:49;3.47;;;2.17;;
20431;SDS011;10375;49.136;10.366;2023-08-07T02:02:16;1.27;;;0.95;;
20431;SDS011;10375;49.136;10.366;2023-08-07T02:04:43;2.47;;;1.80;;
20431;SDS011;10375;49.136;10.366;2023-08-07T02:07:10;5.40;;;2.45;;
20431;SDS011;10375;49.136;10.366;2023-08-07T02:09:37;4.30;;;2.60;;
20431;SDS011;10375;49.136;10.366;2023-08-07T02:12:04;3.10;;;1.70;;
20431;SDS011;10375;49.136;10.366;2023-08-07T02:14:32;2.42;;;1.73;;
20431;SDS011;10375;49.136;10.366;2023-08-07T02:17:00;3.15;;;1.50;;
20431;SDS011;10375;49.136;10.366;2023-08-07T02:19:27;3.08;;;1.85;;
20431;SDS011;10375;49.136;10.366;2023-08-07T02:21:54;1.48;;;1.38;;
20431;SDS011;10375;49.136;10.366;2023-08-07T02:24:21;1.73;;;1.60;;
20431;SDS011;10375;49.136;10.366;2023-08-07T02:26:48;6.55;;;1.80;;
20431;SDS011;10375;49.136;10.366;2023-08-07T02:29:15;7.15;;;1.40;;
20431;SDS011;10375;49.136;10.366;2023-08-07T02:31:43;4.25;;;1.90;;
20431;SDS011;10375;49.136;10.366;2023-08-07T02:34:10;2.70;;;1.70;;
20431;SDS011;10375;49.136;10.366;2023-08-07T02:36:37;1.33;;;1.10;;
20431;SDS011;10375;49.136;10.366;2023-08-07T02:39:04;4.35;;;1.63;;
20431;SDS011;10375;49.136;10.366;2023-08-07T02:41:31;5.05;;;1.83;;
20431;SDS011;10375;49.136;10.366;2023-08-07T02:43:58;3.63;;;1.45;;
20431;SDS011;10375;49.136;10.366;2023-08-07T02:46:27;2.10;;;1.25;;
20431;SDS011;10375;49.136;10.366;2023-08-07T02:48:54;1.90;;;1.30;;
20431;SDS011;10375;49.136;10.366;2023-08-07T02:51:21;4.50;;;1.52;;
20431;SDS011;10375;49.136;10.366;2023-08-07T02:53:48;2.47;;;1.83;;
20431;SDS011;10375;49.136;10.366;2023-08-07T02:56:15;4.30;;;1.88;;
20431;SDS011;10375;49.136;10.366;2023-08-07T02:58:42;7.03;;;2.67;;
20431;SDS011;10375;49.136;10.366;2023-08-07T03:01:09;5.68;;;2.35;;
20431;SDS011;10375;49.136;10.366;2023-08-07T03:03:37;5.82;;;2.08;;
20431;SDS011;10375;49.136;10.366;2023-08-07T03:06:05;5.88;;;1.60;;
20431;SDS011;10375;49.136;10.366;2023-08-07T03:08:32;11.32;;;2.30;;
20431;SDS011;10375;49.136;10.366;2023-08-07T03:10:59;4.00;;;2.20;;
20431;SDS011;10375;49.136;10.366;2023-08-07T03:13:26;4.15;;;2.03;;
20431;SDS011;10375;49.136;10.366;2023-08-07T03:16:03;2.70;;;1.85;;
20431;SDS011;10375;49.136;10.366;2023-08-07T03:18:32;4.32;;;2.08;;
20431;SDS011;10375;49.136;10.366;2023-08-07T03:21:00;3.13;;;2.08;;
20431;SDS011;10375;49.136;10.366;2023-08-07T03:23:27;3.20;;;1.83;;
20431;SDS011;10375;49.136;10.366;2023-08-07T03:26:01;2.90;;;1.67;;
20431;SDS011;10375;49.136;10.366;2023-08-07T03:28:44;3.40;;;2.03;;
20431;SDS011;10375;49.136;10.366;2023-08-07T03:31:14;1.35;;;1.08;;
20431;SDS011;10375;49.136;10.366;2023-08-07T03:33:41;1.35;;;1.25;;
20431;SDS011;10375;49.136;10.366;2023-08-07T03:36:08;3.30;;;1.75;;
20431;SDS011;10375;49.136;10.366;2023-08-07T03:38:36;5.30;;;1.65;;
20431;SDS011;10375;49.136;10.366;2023-08-07T03:41:03;1.05;;;0.90;;
20431;SDS011;10375;49.136;10.366;2023-08-07T03:43:30;1.88;;;1.40;;
20431;SDS011;10375;49.136;10.366;2023-08-07T03:45:57;2.80;;;1.23;;
20431;SDS011;10375;49.136;10.366;2023-08-07T03:48:28;1.65;;;1.42;;
20431;SDS011;10375;49.136;10.366;2023-08-07T03:51:05;5.15;;;1.35;;
20431;SDS011;10375;49.136;10.366;2023-08-07T03:53:35;5.00;;;1.40;;
20431;SDS011;10375;49.136;10.366;2023-08-07T03:56:03;2.35;;;1.58;;
20431;SDS011;10375;49.136;10.366;2023-08-07T03:58:30;1.60;;;1.10;;
20431;SDS011;10375;49.136;10.366;2023-08-07T04:00:57;10.05;;;1.88;;
20431;SDS011;10375;49.136;10.366;2023-08-07T04:03:24;6.13;;;1.52;;
20431;SDS011;10375;49.136;10.366;2023-08-07T04:05:52;1.48;;;1.38;;
20431;SDS011;10375;49.136;10.366;2023-08-07T04:08:20;2.53;;;1.42;;
20431;SDS011;10375;49.136;10.366;2023-08-07T04:10:58;2.05;;;1.23;;
20431;SDS011;10375;49.136;10.366;2023-08-07T04:13:27;5.32;;;1.73;;
20431;SDS011;10375;49.136;10.366;2023-08-07T04:15:54;3.20;;;1.83;;
20431;SDS011;10375;49.136;10.366;2023-08-07T04:18:21;8.25;;;1.63;;
20431;SDS011;10375;49.136;10.366;2023-08-07T04:20:49;4.28;;;1.77;;
20431;SDS011;10375;49.136;10.366;2023-08-07T04:23:20;2.97;;;1.60;;
20431;SDS011;10375;49.136;10.366;2023-08-07T04:25:48;2.10;;;1.40;;
20431;SDS011;10375;49.136;10.366;2023-08-07T04:28:15;2.20;;;1.05;;
20431;SDS011;10375;49.136;10.366;2023-08-07T04:30:43;3.90;;;1.50;;
20431;SDS011;10375;49.136;10.366;2023-08-07T04:33:11;2.83;;;1.63;;
20431;SDS011;10375;49.136;10.366;2023-08-07T04:35:39;1.38;;;1.17;;
20431;SDS011;10375;49.136;10.366;2023-08-07T04:38:06;2.92;;;2.10;;
20431;SDS011;10375;49.136;10.366;2023-08-07T04:40:33;1.30;;;1.00;;
20431;SDS011;10375;49.136;10.366;2023-08-07T04:43:00;3.50;;;1.95;;
20431;SDS011;10375;49.136;10.366;2023-08-07T04:45:28;4.75;;;2.10;;
20431;SDS011;10375;49.136;10.366;2023-08-07T04:47:55;2.80;;;1.75;;
20431;SDS011;10375;49.136;10.366;2023-08-07T04:50:23;2.78;;;1.77;;
20431;SDS011;10375;49.136;10.366;2023-08-07T04:52:50;1.52;;;1.42;;
20431;SDS011;10375;49.136;10.366;2023-08-07T04:55:17;8.02;;;1.88;;
20431;SDS011;10375;49.136;10.366;2023-08-07T04:57:44;5.63;;;1.63;;
20431;SDS011;10375;49.136;10.366;2023-08-07T05:00:13;2.65;;;1.48;;
20431;SDS011;10375;49.136;10.366;2023-08-07T05:02:40;5.32;;;1.85;;
20431;SDS011;10375;49.136;10.366;2023-08-07T05:05:07;3.67;;;1.67;;
20431;SDS011;10375;49.136;10.366;2023-08-07T05:07:36;11.07;;;2.33;;
20431;SDS011;10375;49.136;10.366;2023-08-07T05:10:03;8.65;;;1.90;;
20431;SDS011;10375;49.136;10.366;2023-08-07T05:12:30;1.98;;;1.15;;
20431;SDS011;10375;49.136;10.366;2023-08-07T05:14:57;4.35;;;1.95;;
20431;SDS011;10375;49.136;10.366;2023-08-07T05:17:24;9.63;;;2.42;;
20431;SDS011;10375;49.136;10.366;2023-08-07T05:19:52;10.02;;;2.15;;
20431;SDS011;10375;49.136;10.366;2023-08-07T05:22:19;4.68;;;1.83;;
20431;SDS011;10375;49.136;10.366;2023-08-07T05:24:46;3.47;;;1.77;;
20431;SDS011;10375;49.136;10.366;2023-08-07T05:27:15;4.32;;;1.83;;
20431;SDS011;10375;49.136;10.366;2023-08-07T05:29:42;1.90;;;1.48;;
20431;SDS011;10375;49.136;10.366;2023-08-07T05:32:10;2.60;;;1.70;;
20431;SDS011;10375;49.136;10.366;2023-08-07T05:34:38;2.35;;;1.52;;
20431;SDS011;10375;49.136;10.366;2023-08-07T05:37:06;2.83;;;2.17;;
20431;SDS011;10375;49.136;10.366;2023-08-07T05:39:34;2.58;;;2.28;;
20431;SDS011;10375;49.136;10.366;2023-08-07T05:42:02;1.30;;;1.20;;
20431;SDS011;10375;49.136;10.366;2023-08-07T05:44:29;3.40;;;1.73;;
20431;SDS011;10375;49.136;10.366;2023-08-07T05:46:56;3.13;;;1.42;;
20431;SDS011;10375;49.136;10.366;2023-08-07T05:49:24;8.00;;;1.73;;
20431;SDS011;10375;49.136;10.366;2023-08-07T05:51:52;3.03;;;1.38;;
20431;SDS011;10375;49.136;10.366;2023-08-07T05:54:20;6.18;;;1.60;;
20431;SDS011;10375;49.136;10.366;2023-08-07T05:56:47;2.28;;;1.33;;
20431;SDS011;10375;49.136;10.366;2023-08-07T05:59:15;3.78;;;1.30;;
20431;SDS011;10375;49.136;10.366;2023-08-07T06:01:42;2.28;;;1.83;;
20431;SDS011;10375;49.136;10.366;2023-08-07T06:04:09;3.75;;;1.55;;
20431;SDS011;10375;49.136;10.366;2023-08-07T06:06:36;5.57;;;1.60;;
20431;SDS011;10375;49.136;10.366;2023-08-07T06:09:06;3.17;;;1.38;;
20431;SDS011;10375;49.136;10.366;2023-08-07T06:11:33;6.93;;;1.90;;
20431;SDS011;10375;49.136;10.366;2023-08-07T06:14:00;2.72;;;1.75;;
20431;SDS011;10375;49.136;10.366;2023-08-07T06:16:28;3.13;;;1.30;;
20431;SDS011;10375;49.136;10.366;2023-08-07T06:18:55;2.22;;;1.42;;
20431;SDS011;10375;49.136;10.366;2023-08-07T06:21:22;3.22;;;1.60;;
20431;SDS011;10375;49.136;10.366;2023-08-07T06:23:49;1.60;;;1.40;;
20431;SDS011;10375;49.136;10.366;2023-08-07T06:26:16;1.83;;;1.08;;
20431;SDS011;10375;49.136;10.366;2023-08-07T06:28:43;13.40;;;1.75;;
20431;SDS011;10375;49.136;10.366;2023-08-07T06:31:11;3.83;;;1.05;;
20431;SDS011;10375;49.136;10.366;2023-08-07T06:33:38;1.88;;;1.23;;
20431;SDS011;10375;49.136;10.366;2023-08-07T06:36:06;1.23;;;1.00;;
20431;SDS011;10375;49.136;10.366;2023-08-07T06:38:35;4.95;;;1.65;;
20431;SDS011;10375;49.136;10.366;2023-08-07T06:41:02;2.85;;;1.73;;
20431;SDS011;10375;49.136;10.366;2023-08-07T06:43:29;5.03;;;2.30;;
20431;SDS011;10375;49.136;10.366;2023-08-07T06:45:56;3.28;;;1.83;;
20431;SDS011;10375;49.136;10.366;2023-08-07T06:48:25;6.65;;;1.80;;
20431;SDS011;10375;49.136;10.366;2023-08-07T06:50:52;1.35;;;1.25;;
20431;SDS011;10375;49.136;10.366;2023-08-07T06:53:19;2.25;;;1.40;;
20431;SDS011;10375;49.136;10.366;2023-08-07T06:55:46;2.75;;;1.65;;
20431;SDS011;10375;49.136;10.366;2023-08-07T06:58:13;6.20;;;1.48;;
20431;SDS011;10375;49.136;10.366;2023-08-07T07:00:40;3.03;;;1.40;;
20431;SDS011;10375;49.136;10.366;2023-08-07T07:03:08;2.85;;;1.23;;
20431;SDS011;10375;49.136;10.366;2023-08-07T07:05:36;3.15;;;1.60;;
20431;SDS011;10375;49.136;10.366;2023-08-07T07:08:03;4.53;;;1.80;;
20431;SDS011;10375;49.136;10.366;2023-08-07T07:10:31;2.47;;;1.73;;
20431;SDS011;10375;49.136;10.366;2023-08-07T07:12:58;3.47;;;1.55;;
20431;SDS011;10375;49.136;10.366;2023-08-07T07:15:26;3.83;;;1.52;;
20431;SDS011;10375;49.136;10.366;2023-08-07T07:17:53;7.35;;;1.42;;
20431;SDS011;10375;49.136;10.366;2023-08-07T07:20:20;3.15;;;1.63;;
20431;SDS011;10375;49.136;10.366;2023-08-07T07:22:47;4.85;;;1.45;;
20431;SDS011;10375;49.136;10.366;2023-08-07T07:25:14;6.30;;;2.20;;
20431;SDS011;10375;49.136;10.366;2023-08-07T07:27:42;4.85;;;1.70;;
20431;SDS011;10375;49.136;10.366;2023-08-07T07:30:09;4.18;;;1.63;;
20431;SDS011;10375;49.136;10.366;2023-08-07T07:32:36;3.88;;;1.45;;
20431;SDS011;10375;49.136;10.366;2023-08-07T07:35:04;4.68;;;1.52;;
20431;SDS011;10375;49.136;10.366;2023-08-07T07:37:31;4.47;;;1.42;;
20431;SDS011;10375;49.136;10.366;2023-08-07T07:39:59;2.70;;;1.70;;
20431;SDS011;10375;49.136;10.366;2023-08-07T07:42:26;2.60;;;1.60;;
20431;SDS011;10375;49.136;10.366;2023-08-07T07:44:53;2.83;;;1.63;;
20431;SDS011;10375;49.136;10.366;2023-08-07T07:47:20;3.63;;;2.40;;
20431;SDS011;10375;49.136;10.366;2023-08-07T07:49:47;1.83;;;1.42;;
20431;SDS011;10375;49.136;10.366;2023-08-07T07:52:14;4.05;;;1.83;;
20431;SDS011;10375;49.136;10.366;2023-08-07T07:54:42;3.00;;;2.00;;
20431;SDS011;10375;49.136;10.366;2023-08-07T07:57:09;9.73;;;1.45;;
20431;SDS011;10375;49.136;10.366;2023-08-07T07:59:36;1.60;;;1.13;;
20431;SDS011;10375;49.136;10.366;2023-08-07T08:02:03;13.82;;;1.88;;
20431;SDS011;10375;49.136;10.366;2023-08-07T08:04:31;4.53;;;1.63;;
20431;SDS011;10375;49.136;10.366;2023-08-07T08:06:58;5.65;;;1.35;;
20431;SDS011;10375;49.136;10.366;2023-08-07T08:09:26;5.97;;;1.63;;
20431;SDS011;10375;49.136;10.366;2023-08-07T08:11:53;1.90;;;1.70;;
20431;SDS011;10375;49.136;10.366;2023-08-07T08:14:21;5.72;;;1.77;;
20431;SDS011;10375;49.136;10.366;2023-08-07T08:16:48;13.48;;;1.80;;
20431;SDS011;10375;49.136;10.366;2023-08-07T08:19:16;7.20;;;1.85;;
20431;SDS011;10375;49.136;10.366;2023-08-07T08:21:43;2.78;;;1.45;;
20431;SDS011;10375;49.136;10.366;2023-08-07T08:24:10;4.85;;;2.25;;
20431;SDS011;10375;49.136;10.366;2023-08-07T08:26:37;5.63;;;2.47;;
20431;SDS011;10375;49.136;10.366;2023-08-07T08:29:05;5.47;;;2.10;;
20431;SDS011;10375;49.136;10.366;2023-08-07T08:31:33;4.25;;;1.90;;
20431;SDS011;10375;49.136;10.366;2023-08-07T08:34:00;3.70;;;1.73;;
20431;SDS011;10375;49.136;10.366;2023-08-07T08:36:28;2.55;;;1.92;;
20431;SDS011;10375;49.136;10.366;2023-08-07T08:38:55;2.63;;;1.85;;
20431;SDS011;10375;49.136;10.366;2023-08-07T08:41:22;14.85;;;2.25;;
20431;SDS011;10375;49.136;10.366;2023-08-07T08:43:51;2.85;;;1.45;;
20431;SDS011;10375;49.136;10.366;2023-08-07T08:46:21;3.88;;;1.40;;
20431;SDS011;10375;49.136;10.366;2023-08-07T08:48:56;11.25;;;1.85;;
20431;SDS011;10375;49.136;10.366;2023-08-07T08:51:25;2.58;;;1.40;;
20431;SDS011;10375;49.136;10.366;2023-08-07T08:53:52;8.73;;;1.75;;
20431;SDS011;10375;49.136;10.366;2023-08-07T08:56:23;3.80;;;1.75;;
20431;SDS011;10375;49.136;10.366;2023-08-07T08:58:50;6.80;;;1.95;;
20431;SDS011;10375;49.136;10.366;2023-08-07T09:01:18;15.00;;;2.00;;
20431;SDS011;10375;49.136;10.366;2023-08-07T09:03:48;1.85;;;1.20;;
20431;SDS011;10375;49.136;10.366;2023-08-07T09:06:18;13.68;;;1.90;;
20431;SDS011;10375;49.136;10.366;2023-08-07T09:08:45;5.45;;;1.70;;
20431;SDS011;10375;49.136;10.366;2023-08-07T09:11:13;1.67;;;1.27;;
20431;SDS011;10375;49.136;10.366;2023-08-07T09:13:41;1.85;;;1.20;;
20431;SDS011;10375;49.136;10.366;2023-08-07T09:16:11;3.58;;;1.40;;
20431;SDS011;10375;49.136;10.366;2023-08-07T09:18:39;6.65;;;1.58;;
20431;SDS011;10375;49.136;10.366;2023-08-07T09:21:06;2.95;;;1.83;;
20431;SDS011;10375;49.136;10.366;2023-08-07T09:23:33;7.90;;;1.25;;
20431;SDS011;10375;49.136;10.366;2023-08-07T09:26:04;10.07;;;2.10;;
20431;SDS011;10375;49.136;10.366;2023-08-07T09:28:32;5.80;;;1.98;;
20431;SDS011;10375;49.136;10.366;2023-08-07T09:31:00;3.58;;;1.60;;
20431;SDS011;10375;49.136;10.366;2023-08-07T09:33:29;4.32;;;1.20;;
20431;SDS011;10375;49.136;10.366;2023-08-07T09:35:57;1.92;;;1.50;;
20431;SDS011;10375;49.136;10.366;2023-08-07T09:38:29;5.53;;;1.25;;
20431;SDS011;10375;49.136;10.366;2023-08-07T09:41:01;2.47;;;1.20;;
20431;SDS011;10375;49.136;10.366;2023-08-07T09:43:33;2.42;;;1.30;;
20431;SDS011;10375;49.136;10.366;2023-08-07T09:46:05;2.38;;;1.13;;
20431;SDS011;10375;49.136;10.366;2023-08-07T09:48:40;4.28;;;2.60;;
20431;SDS011;10375;49.136;10.366;2023-08-07T09:51:08;2.33;;;1.10;;
20431;SDS011;10375;49.136;10.366;2023-08-07T09:53:36;4.43;;;2.45;;
20431;SDS011;10375;49.136;10.366;2023-08-07T09:56:03;3.08;;;1.13;;
20431;SDS011;10375;49.136;10.366;2023-08-07T09:58:30;2.45;;;1.42;;
20431;SDS011;10375;49.136;10.366;2023-08-07T10:01:02;4.75;;;1.67;;
20431;SDS011;10375;49.136;10.366;2023-08-07T10:03:31;1.20;;;1.10;;
20431;SDS011;10375;49.136;10.366;2023-08-07T10:05:58;2.53;;;1.27;;
20431;SDS011;10375;49.136;10.366;2023-08-07T10:08:26;2.28;;;1.17;;
20431;SDS011;10375;49.136;10.366;2023-08-07T10:10:54;6.85;;;1.60;;
20431;SDS011;10375;49.136;10.366;2023-08-07T10:13:21;2.70;;;1.23;;
20431;SDS011;10375;49.136;10.366;2023-08-07T10:16:04;3.00;;;1.42;;
20431;SDS011;10375;49.136;10.366;2023-08-07T10:18:32;11.43;;;2.05;;
20431;SDS011;10375;49.136;10.366;2023-08-07T10:21:00;3.10;;;2.08;;
20431;SDS011;10375;49.136;10.366;2023-08-07T10:23:28;2.97;;;1.40;;
20431;SDS011;10375;49.136;10.366;2023-08-07T10:25:57;1.90;;;1.40;;
20431;SDS011;10375;49.136;10.366;2023-08-07T10:28:25;4.90;;;1.60;;
20431;SDS011;10375;49.136;10.366;2023-08-07T10:30:55;1.67;;;1.20;;
20431;SDS011;10375;49.136;10.366;2023-08-07T10:33:23;1.58;;;1.15;;
20431;SDS011;10375;49.136;10.366;2023-08-07T10:35:52;1.75;;;1.52;;
20431;SDS011;10375;49.136;10.366;2023-08-07T10:38:19;3.53;;;1.52;;
20431;SDS011;10375;49.136;10.366;2023-08-07T10:40:59;3.45;;;1.27;;
20431;SDS011;10375;49.136;10.366;2023-08-07T10:43:42;22.63;;;4.07;;
20431;SDS011;10375;49.136;10.366;2023-08-07T10:46:15;4.55;;;1.42;;
20431;SDS011;10375;49.136;10.366;2023-08-07T10:48:55;1.73;;;1.52;;
20431;SDS011;10375;49.136;10.366;2023-08-07T10:51:29;3.85;;;1.63;;
20431;SDS011;10375;49.136;10.366;2023-08-07T10:54:00;2.47;;;1.48;;
20431;SDS011;10375;49.136;10.366;2023-08-07T10:56:32;2.80;;;1.35;;
20431;SDS011;10375;49.136;10.366;2023-08-07T10:59:07;1.83;;;1.52;;
20431;SDS011;10375;49.136;10.366;2023-08-07T11:04:13;3.10;;;1.60;;
20431;SDS011;10375;49.136;10.366;2023-08-07T11:06:42;3.75;;;1.30;;
20431;SDS011;10375;49.136;10.366;2023-08-07T11:09:10;38.47;;;3.67;;
20431;SDS011;10375;49.136;10.366;2023-08-07T11:11:39;20.95;;;3.10;;
20431;SDS011;10375;49.136;10.366;2023-08-07T11:14:08;3.13;;;1.70;;
20431;SDS011;10375;49.136;10.366;2023-08-07T11:16:36;2.40;;;1.23;;
20431;SDS011;10375;49.136;10.366;2023-08-07T11:19:04;16.40;;;2.05;;
20431;SDS011;10375;49.136;10.366;2023-08-07T11:21:32;18.15;;;2.58;;
20431;SDS011;10375;49.136;10.366;2023-08-07T11:24:00;5.03;;;1.98;;
20431;SDS011;10375;49.136;10.366;2023-08-07T11:26:27;8.00;;;1.92;;
20431;SDS011;10375;49.136;10.366;2023-08-07T11:28:55;2.95;;;1.15;;
20431;SDS011;10375;49.136;10.366;2023-08-07T11:31:23;6.78;;;1.20;;
20431;SDS011;10375;49.136;10.366;2023-08-07T11:33:52;2.75;;;1.40;;
20431;SDS011;10375;49.136;10.366;2023-08-07T11:36:24;2.35;;;1.60;;
20431;SDS011;10375;49.136;10.366;2023-08-07T11:38:51;1.73;;;1.17;;
20431;SDS011;10375;49.136;10.366;2023-08-07T11:41:19;37.58;;;2.60;;
20431;SDS011;10375;49.136;10.366;2023-08-07T11:43:46;1.50;;;1.05;;
20431;SDS011;10375;49.136;10.366;2023-08-07T11:46:14;1.38;;;1.00;;
20431;SDS011;10375;49.136;10.366;2023-08-07T11:48:43;2.00;;;1.05;;
20431;SDS011;10375;49.136;10.366;2023-08-07T11:51:11;1.52;;;1.10;;
20431;SDS011;10375;49.136;10.366;2023-08-07T11:53:39;4.47;;;1.40;;
20431;SDS011;10375;49.136;10.366;2023-08-07T11:56:08;8.93;;;1.35;;
20431;SDS011;10375;49.136;10.366;2023-08-07T11:58:38;30.30;;;3.38;;
20431;SDS011;10375;49.136;10.366;2023-08-07T12:01:11;9.85;;;2.45;;
20431;SDS011;10375;49.136;10.366;2023-08-07T12:06:22;3.83;;;1.27;;
20431;SDS011;10375;49.136;10.366;2023-08-07T12:08:53;1.52;;;1.08;;
20431;SDS011;10375;49.136;10.366;2023-08-07T12:11:21;1.65;;;0.90;;
20431;SDS011;10375;49.136;10.366;2023-08-07T12:13:49;3.63;;;1.25;;
20431;SDS011;10375;49.136;10.366;2023-08-07T12:16:17;1.67;;;1.02;;
20431;SDS011;10375;49.136;10.366;2023-08-07T12:21:17;1.23;;;1.02;;
20431;SDS011;10375;49.136;10.366;2023-08-07T12:23:54;1.40;;;1.00;;
20431;SDS011;10375;49.136;10.366;2023-08-07T12:26:22;1.45;;;0.88;;
20431;SDS011;10375;49.136;10.366;2023-08-07T12:28:49;2.72;;;1.10;;
20431;SDS011;10375;49.136;10.366;2023-08-07T12:31:17;3.78;;;1.52;;
20431;SDS011;10375;49.136;10.366;2023-08-07T12:33:45;4.82;;;1.15;;
20431;SDS011;10375;49.136;10.366;2023-08-07T12:36:12;5.80;;;1.35;;
20431;SDS011;10375;49.136;10.366;2023-08-07T12:38:43;2.15;;;1.17;;
20431;SDS011;10375;49.136;10.366;2023-08-07T12:41:11;4.30;;;0.93;;
20431;SDS011;10375;49.136;10.366;2023-08-07T12:43:41;1.65;;;0.93;;
20431;SDS011;10375;49.136;10.366;2023-08-07T12:46:08;2.15;;;1.20;;
20431;SDS011;10375;49.136;10.366;2023-08-07T12:48:38;4.43;;;1.55;;
20431;SDS011;10375;49.136;10.366;2023-08-07T12:51:05;0.82;;;0.82;;
20431;SDS011;10375;49.136;10.366;2023-08-07T12:53:32;2.67;;;1.38;;
20431;SDS011;10375;49.136;10.366;2023-08-07T12:55:59;3.70;;;1.33;;
20431;SDS011;10375;49.136;10.366;2023-08-07T12:58:28;5.63;;;1.58;;
20431;SDS011;10375;49.136;10.366;2023-08-07T13:00:56;3.22;;;1.20;;
20431;SDS011;10375;49.136;10.366;2023-08-07T13:03:23;1.00;;;0.90;;
20431;SDS011;10375;49.136;10.366;2023-08-07T13:05:51;2.85;;;1.30;;
20431;SDS011;10375;49.136;10.366;2023-08-07T13:08:18;4.47;;;1.30;;
20431;SDS011;10375;49.136;10.366;2023-08-07T13:10:45;1.75;;;1.05;;
20431;SDS011;10375;49.136;10.366;2023-08-07T13:13:15;1.67;;;1.10;;
20431;SDS011;10375;49.136;10.366;2023-08-07T13:15:42;2.17;;;1.15;;
20431;SDS011;10375;49.136;10.366;2023-08-07T13:18:09;2.75;;;1.00;;
20431;SDS011;10375;49.136;10.366;2023-08-07T13:20:37;9.65;;;2.05;;
20431;SDS011;10375;49.136;10.366;2023-08-07T13:23:04;3.63;;;1.27;;
20431;SDS011;10375;49.136;10.366;2023-08-07T13:25:33;3.20;;;1.05;;
20431;SDS011;10375;49.136;10.366;2023-08-07T13:28:00;1.50;;;1.40;;
20431;SDS011;10375;49.136;10.366;2023-08-07T13:30:31;4.05;;;1.45;;
20431;SDS011;10375;49.136;10.366;2023-08-07T13:33:02;1.85;;;1.10;;
20431;SDS011;10375;49.136;10.366;2023-08-07T13:35:29;14.73;;;1.58;;
20431;SDS011;10375;49.136;10.366;2023-08-07T13:37:57;1.77;;;1.20;;
20431;SDS011;10375;49.136;10.366;2023-08-07T13:40:24;2.65;;;1.40;;
20431;SDS011;10375;49.136;10.366;2023-08-07T13:42:51;5.40;;;1.40;;
20431;SDS011;10375;49.136;10.366;2023-08-07T13:45:19;7.57;;;1.63;;
20431;SDS011;10375;49.136;10.366;2023-08-07T13:47:47;5.95;;;1.70;;
20431;SDS011;10375;49.136;10.366;2023-08-07T13:50:14;3.83;;;1.30;;
20431;SDS011;10375;49.136;10.366;2023-08-07T13:52:41;1.90;;;1.40;;
20431;SDS011;10375;49.136;10.366;2023-08-07T13:55:09;3.50;;;2.05;;
20431;SDS011;10375;49.136;10.366;2023-08-07T13:57:36;3.08;;;1.60;;
20431;SDS011;10375;49.136;10.366;2023-08-07T14:00:03;5.38;;;1.75;;
20431;SDS011;10375;49.136;10.366;2023-08-07T14:02:31;2.55;;;1.10;;
20431;SDS011;10375;49.136;10.366;2023-08-07T14:05:01;4.43;;;1.50;;
20431;SDS011;10375;49.136;10.366;2023-08-07T14:07:28;6.88;;;2.08;;
20431;SDS011;10375;49.136;10.366;2023-08-07T14:09:55;2.92;;;1.50;;
20431;SDS011;10375;49.136;10.366;2023-08-07T14:12:23;5.57;;;1.65;;
20431;SDS011;10375;49.136;10.366;2023-08-07T14:14:50;3.70;;;1.67;;
20431;SDS011;10375;49.136;10.366;2023-08-07T14:17:17;3.83;;;1.10;;
20431;SDS011;10375;49.136;10.366;2023-08-07T14:19:44;2.53;;;1.30;;
20431;SDS011;10375;49.136;10.366;2023-08-07T14:22:11;8.27;;;1.55;;
20431;SDS011;10375;49.136;10.366;2023-08-07T14:24:39;3.05;;;1.67;;
20431;SDS011;10375;49.136;10.366;2023-08-07T14:27:06;4.57;;;1.25;;
20431;SDS011;10375;49.136;10.366;2023-08-07T14:29:33;2.90;;;1.45;;
20431;SDS011;10375;49.136;10.366;2023-08-07T14:32:00;2.10;;;1.33;;
